createdAt,value
2017-11-26T00:04:41.951Z,2.60
2017-11-26T00:09:43.478Z,2.80
2017-11-26T00:14:45.111Z,2.80
2017-11-26T00:19:46.672Z,2.80
2017-11-26T00:24:48.255Z,2.90
2017-11-26T00:29:49.761Z,3.10
2017-11-26T00:34:51.347Z,3.20
2017-11-26T00:39:52.880Z,3.20
2017-11-26T00:44:54.438Z,3.20
2017-11-26T00:49:56.744Z,3.40
2017-11-26T00:54:58.388Z,3.30
2017-11-26T01:00:00.646Z,3.30
2017-11-26T01:05:02.192Z,3.30
2017-11-26T01:10:03.722Z,3.30
2017-11-26T01:15:05.291Z,3.40
2017-11-26T01:20:06.820Z,3.40
2017-11-26T01:25:08.342Z,3.40
2017-11-26T01:30:09.859Z,3.50
2017-11-26T01:35:11.368Z,3.40
2017-11-26T01:40:12.946Z,3.50
2017-11-26T01:45:14.489Z,3.50
2017-11-26T01:50:16.783Z,3.40
2017-11-26T01:55:18.303Z,3.30
2017-11-26T02:00:19.837Z,3.40
2017-11-26T02:05:21.329Z,3.50
2017-11-26T02:10:22.849Z,3.50
2017-11-26T02:15:24.373Z,3.50
2017-11-26T02:20:25.908Z,3.60
2017-11-26T02:25:27.405Z,3.70
2017-11-26T02:30:28.942Z,3.80
2017-11-26T02:51:24.844Z,3.80
2017-11-26T02:56:27.241Z,3.90
2017-11-26T03:01:28.774Z,3.80
2017-11-26T03:06:30.298Z,3.90
2017-11-26T03:11:31.802Z,3.90
2017-11-26T03:16:33.346Z,3.90
2017-11-26T03:21:34.990Z,3.90
2017-11-26T03:26:36.491Z,4.00
2017-11-26T03:31:38.020Z,3.90
2017-11-26T03:36:39.536Z,3.80
2017-11-26T03:41:41.042Z,3.60
2017-11-26T03:46:43.302Z,3.50
2017-11-26T03:51:44.818Z,3.40
2017-11-26T03:56:46.305Z,3.40
2017-11-26T04:01:54.751Z,3.40
2017-11-26T04:06:56.223Z,3.30
2017-11-26T04:11:57.715Z,3.30
2017-11-26T04:16:59.934Z,3.30
2017-11-26T04:22:01.410Z,3.20
2017-11-26T04:27:02.905Z,3.30
2017-11-26T04:32:04.422Z,3.40
2017-11-26T04:37:06.043Z,3.40
2017-11-26T04:42:07.707Z,3.40
2017-11-26T04:47:09.331Z,3.40
2017-11-26T04:52:10.874Z,3.40
2017-11-26T04:57:13.110Z,3.50
2017-11-26T05:02:14.601Z,3.50
2017-11-26T05:07:16.147Z,3.60
2017-11-26T05:12:17.654Z,3.70
2017-11-26T05:17:19.897Z,3.70
2017-11-26T05:22:21.371Z,3.60
2017-11-26T05:27:22.889Z,3.80
2017-11-26T05:32:24.379Z,3.70
2017-11-26T05:37:25.877Z,3.70
2017-11-26T05:42:27.382Z,3.70
2017-11-26T05:47:29.875Z,3.80
2017-11-26T05:52:31.390Z,3.70
2017-11-26T05:57:32.901Z,3.80
2017-11-26T06:02:35.126Z,3.80
2017-11-26T06:07:36.635Z,3.80
2017-11-26T06:12:38.195Z,3.80
2017-11-26T06:17:39.726Z,3.90
2017-11-26T06:22:41.231Z,3.90
2017-11-26T06:27:42.740Z,3.80
2017-11-26T06:32:44.255Z,3.70
2017-11-26T06:37:45.762Z,3.60
2017-11-26T06:42:47.286Z,3.70
2017-11-26T06:47:48.875Z,3.60
2017-11-26T06:52:51.148Z,3.50
2017-11-26T06:57:52.831Z,3.50
2017-11-26T07:02:55.139Z,3.50
2017-11-26T07:07:56.674Z,3.50
2017-11-26T07:12:58.215Z,3.50
2017-11-26T07:17:59.765Z,3.60
2017-11-26T07:23:01.520Z,3.80
2017-11-26T07:28:03.055Z,3.80
2017-11-26T07:33:04.562Z,3.80
2017-11-26T07:38:06.090Z,3.90
2017-11-26T07:43:07.632Z,3.90
2017-11-26T07:48:09.173Z,3.90
2017-11-26T07:53:10.682Z,4.00
2017-11-26T07:58:12.195Z,4.30
2017-11-26T08:03:13.742Z,4.60
2017-11-26T08:08:16.020Z,4.80
2017-11-26T08:13:18.291Z,4.80
2017-11-26T08:18:19.834Z,4.80
2017-11-26T08:23:21.341Z,4.70
2017-11-26T08:28:23.630Z,4.80
2017-11-26T08:33:25.198Z,4.80
2017-11-26T08:38:27.476Z,4.90
2017-11-26T08:43:30.195Z,5.30
2017-11-26T08:48:31.709Z,5.20
2017-11-26T08:53:33.312Z,5.40
2017-11-26T08:58:35.588Z,5.40
2017-11-26T09:03:37.869Z,5.50
2017-11-26T09:08:51.137Z,5.50
2017-11-26T09:13:52.690Z,5.70
2017-11-26T09:18:54.220Z,5.70
2017-11-26T09:23:55.731Z,5.70
2017-11-26T09:28:57.968Z,5.50
2017-11-26T09:33:59.647Z,5.40
2017-11-26T09:39:01.198Z,5.40
2017-11-26T09:44:09.700Z,5.60
2017-11-26T09:49:11.262Z,5.80
2017-11-26T09:54:12.809Z,5.90
2017-11-26T09:59:15.072Z,5.90
2017-11-26T10:04:16.630Z,5.80
2017-11-26T10:09:18.176Z,5.90
2017-11-26T10:14:19.768Z,5.90
2017-11-26T10:19:21.325Z,6.10
2017-11-26T10:24:22.899Z,6.10
2017-11-26T10:29:24.740Z,6.10
2017-11-26T10:34:26.392Z,6.30
2017-11-26T10:39:27.968Z,6.30
2017-11-26T10:44:29.541Z,6.30
2017-11-26T10:49:31.113Z,6.20
2017-11-26T10:54:32.671Z,5.90
2017-11-26T10:59:34.320Z,5.80
2017-11-26T11:04:35.909Z,5.90
2017-11-26T11:09:38.181Z,6.10
2017-11-26T11:14:40.442Z,6.00
2017-11-26T11:19:41.990Z,5.90
2017-11-26T11:24:43.611Z,5.90
2017-11-26T11:29:45.300Z,5.90
2017-11-26T11:34:46.856Z,6.10
2017-11-26T11:39:48.417Z,6.10
2017-11-26T11:44:50.732Z,6.20
2017-11-26T11:49:52.307Z,6.10
2017-11-26T11:54:53.847Z,6.20
2017-11-26T11:59:55.329Z,6.20
2017-11-26T12:04:56.854Z,6.20
2017-11-26T12:09:59.116Z,6.20
2017-11-26T12:15:00.639Z,6.20
2017-11-26T12:20:02.211Z,6.20
2017-11-26T12:25:03.827Z,6.20
2017-11-26T12:30:05.383Z,6.10
2017-11-26T12:35:06.972Z,6.20
2017-11-26T12:40:08.464Z,6.10
2017-11-26T12:45:10.754Z,5.60
2017-11-26T12:50:12.318Z,5.50
2017-11-26T12:55:13.906Z,5.60
2017-11-26T13:00:15.594Z,5.60
2017-11-26T13:05:17.290Z,5.60
2017-11-26T13:10:18.823Z,5.80
2017-11-26T13:15:20.307Z,5.80
2017-11-26T13:20:21.853Z,5.90
2017-11-26T13:25:23.447Z,6.00
2017-11-26T13:30:24.926Z,6.20
2017-11-26T13:35:26.511Z,6.20
2017-11-26T13:40:28.249Z,6.50
2017-11-26T13:45:29.812Z,6.50
2017-11-26T13:50:31.338Z,6.50
2017-11-26T13:55:32.927Z,6.60
2017-11-26T14:00:34.462Z,6.60
2017-11-26T14:05:36.753Z,6.20
2017-11-26T14:10:39.038Z,6.20
2017-11-26T14:15:41.387Z,6.10
2017-11-26T14:20:42.904Z,6.00
2017-11-26T14:25:44.439Z,6.00
2017-11-26T14:30:45.976Z,6.00
2017-11-26T14:35:47.541Z,5.90
2017-11-26T14:40:49.024Z,5.80
2017-11-26T14:45:50.582Z,5.80
2017-11-26T14:50:52.387Z,5.70
2017-11-26T14:55:53.852Z,5.70
2017-11-26T15:00:56.127Z,5.50
2017-11-26T15:05:57.726Z,5.40
2017-11-26T15:10:59.283Z,5.40
2017-11-26T15:16:01.583Z,5.30
2017-11-26T15:21:03.182Z,5.20
2017-11-26T15:26:04.702Z,5.10
2017-11-26T15:31:06.483Z,5.00
2017-11-26T15:36:08.020Z,5.00
2017-11-26T15:41:09.589Z,5.00
2017-11-26T15:46:11.117Z,5.00
2017-11-26T15:56:20.889Z,5.00
2017-11-26T16:01:22.417Z,4.90
2017-11-26T16:06:23.960Z,5.00
2017-11-26T16:11:25.649Z,5.00
2017-11-26T16:16:27.164Z,4.90
2017-11-26T16:21:28.695Z,4.80
2017-11-26T16:26:30.396Z,4.80
2017-11-26T16:31:31.903Z,4.80
2017-11-26T16:36:33.522Z,4.90
2017-11-26T16:41:35.172Z,5.10
2017-11-26T16:46:37.490Z,4.90
2017-11-26T16:51:39.095Z,4.90
2017-11-26T16:56:40.556Z,4.80
2017-11-26T17:01:42.092Z,4.70
2017-11-26T17:06:43.631Z,4.60
2017-11-26T17:11:45.932Z,4.50
2017-11-26T17:16:47.495Z,4.40
2017-11-26T17:21:49.036Z,4.40
2017-11-26T17:26:50.643Z,4.30
2017-11-26T17:31:52.175Z,4.20
2017-11-26T17:36:54.530Z,4.20
2017-11-26T17:41:56.110Z,4.10
2017-11-26T17:46:57.819Z,4.30
2017-11-26T17:51:59.433Z,4.20
2017-11-26T17:57:00.992Z,4.30
2017-11-26T18:02:02.540Z,4.40
2017-11-26T18:07:04.167Z,4.40
2017-11-26T18:12:06.430Z,4.50
2017-11-26T18:17:08.038Z,4.40
2017-11-26T18:22:09.617Z,4.50
2017-11-26T18:27:11.310Z,4.50
2017-11-26T18:32:13.939Z,4.50
2017-11-26T18:37:15.639Z,4.40
2017-11-26T18:42:17.234Z,4.40
2017-11-26T18:47:18.745Z,4.40
2017-11-26T18:52:20.352Z,4.40
2017-11-26T18:57:21.995Z,4.40
2017-11-26T19:02:24.311Z,4.40
2017-11-26T19:07:25.983Z,4.40
2017-11-26T19:12:27.594Z,4.70
2017-11-26T19:17:29.231Z,4.70
2017-11-26T19:22:30.947Z,4.90
2017-11-26T19:27:32.490Z,4.90
2017-11-26T19:32:34.049Z,5.00
2017-11-26T19:37:35.649Z,4.90
2017-11-26T19:42:37.435Z,4.90
2017-11-26T19:47:39.215Z,4.80
2017-11-26T19:52:40.763Z,4.80
2017-11-26T19:57:42.440Z,4.80
2017-11-26T20:02:44.008Z,4.90
2017-11-26T20:07:45.608Z,5.00
2017-11-26T20:12:47.216Z,4.80
2017-11-26T20:17:48.756Z,4.70
2017-11-26T20:22:50.249Z,4.70
2017-11-26T20:27:51.907Z,4.70
2017-11-26T20:32:53.434Z,4.70
2017-11-26T20:37:55.712Z,4.70
2017-11-26T20:42:57.992Z,4.60
2017-11-26T20:48:00.394Z,4.70
2017-11-26T20:53:01.981Z,4.60
2017-11-26T20:58:03.650Z,4.70
2017-11-26T21:03:05.226Z,4.60
2017-11-26T21:08:07.495Z,4.70
2017-11-26T21:13:09.123Z,4.60
2017-11-26T21:18:10.712Z,4.60
2017-11-26T21:23:13.023Z,4.60
2017-11-26T21:28:14.641Z,4.40
2017-11-26T21:33:16.205Z,4.60
2017-11-26T21:38:17.788Z,4.60
2017-11-26T21:43:19.458Z,4.70
2017-11-26T21:48:21.044Z,4.60
2017-11-26T21:53:22.598Z,4.60
2017-11-26T21:58:24.147Z,4.60
2017-11-26T22:03:25.769Z,4.60
2017-11-26T22:08:27.394Z,4.60
2017-11-26T22:13:29.003Z,4.60
2017-11-26T22:18:30.557Z,4.70
2017-11-26T22:23:32.848Z,4.60
2017-11-26T22:28:35.134Z,4.70
2017-11-26T22:33:37.424Z,4.60
2017-11-26T22:38:38.991Z,4.60
2017-11-26T22:43:41.252Z,4.70
2017-11-26T22:48:42.720Z,4.60
2017-11-26T22:53:44.246Z,4.60
2017-11-26T22:58:45.792Z,4.60
2017-11-26T23:03:47.332Z,4.70
2017-11-26T23:08:49.791Z,4.70
2017-11-26T23:13:51.298Z,4.70
2017-11-26T23:18:53.596Z,4.70
2017-11-26T23:23:55.209Z,4.70
2017-11-26T23:28:56.737Z,4.80
2017-11-26T23:33:58.247Z,4.80
2017-11-26T23:38:59.765Z,4.90
2017-11-26T23:44:01.282Z,4.90
2017-11-26T23:49:02.803Z,4.90
2017-11-26T23:54:04.310Z,5.00
2017-11-26T23:59:05.870Z,5.00
